createdAt,value
2019-01-24T00:02:20.969Z,100374.89
2019-01-24T00:04:47.175Z,100382.80
2019-01-24T00:07:13.443Z,100392.87
2019-01-24T00:09:39.584Z,100394.44
2019-01-24T00:12:05.731Z,100404.86
2019-01-24T00:14:31.881Z,100407.52
2019-01-24T00:16:58.075Z,100411.70
2019-01-24T00:19:24.253Z,100416.40
2019-01-24T00:21:50.356Z,100413.46
2019-01-24T00:24:16.503Z,100412.81
2019-01-24T00:26:42.600Z,100412.39
2019-01-24T00:29:08.702Z,100411.09
2019-01-24T00:31:34.994Z,100415.83
2019-01-24T00:34:01.103Z,100412.47
2019-01-24T00:36:27.345Z,100409.93
2019-01-24T00:38:53.465Z,100413.84
2019-01-24T00:41:19.627Z,100418.97
2019-01-24T00:43:45.829Z,100415.44
2019-01-24T00:46:11.974Z,100413.25
2019-01-24T00:48:38.091Z,100415.95
2019-01-24T00:51:04.264Z,100417.25
2019-01-24T00:53:30.351Z,100417.69
2019-01-24T00:55:56.479Z,100424.14
2019-01-24T00:58:22.626Z,100425.78
2019-01-24T01:00:48.776Z,100420.61
2019-01-24T01:03:15.024Z,100420.96
2019-01-24T01:05:41.235Z,100423.15
2019-01-24T01:08:07.376Z,100421.00
2019-01-24T01:10:33.614Z,100428.31
2019-01-24T01:12:59.729Z,100430.78
2019-01-24T01:15:25.860Z,100429.05
2019-01-24T01:17:51.988Z,100428.59
2019-01-24T01:20:19.953Z,100431.13
2019-01-24T01:22:46.051Z,100433.28
2019-01-24T01:25:12.418Z,100433.66
2019-01-24T01:27:38.647Z,100437.06
2019-01-24T01:30:10.819Z,100438.36
2019-01-24T01:32:36.986Z,100442.70
2019-01-24T01:35:04.369Z,100436.20
2019-01-24T01:37:30.572Z,100436.59
2019-01-24T01:39:56.717Z,100446.50
2019-01-24T01:42:23.002Z,100445.59
2019-01-24T01:44:49.107Z,100449.98
2019-01-24T01:47:15.234Z,100449.22
2019-01-24T01:49:41.346Z,100453.44
2019-01-24T01:52:07.479Z,100452.09
2019-01-24T01:54:33.607Z,100450.37
2019-01-24T01:56:59.751Z,100453.78
2019-01-24T01:59:25.912Z,100451.11
2019-01-24T02:01:52.128Z,100451.11
2019-01-24T02:04:18.241Z,100464.96
2019-01-24T02:06:44.376Z,100472.80
2019-01-24T02:09:10.506Z,100477.08
2019-01-24T02:11:36.638Z,100480.75
2019-01-24T02:14:03.546Z,100471.34
2019-01-24T02:16:29.679Z,100472.06
2019-01-24T02:18:55.790Z,100477.60
2019-01-24T02:21:22.328Z,100476.70
2019-01-24T02:23:48.426Z,100475.78
2019-01-24T02:26:14.656Z,100474.34
2019-01-24T02:28:40.799Z,100469.92
2019-01-24T02:31:06.929Z,100471.83
2019-01-24T02:33:33.094Z,100478.98
2019-01-24T02:35:59.227Z,100478.80
2019-01-24T02:38:25.355Z,100480.87
2019-01-24T02:40:51.751Z,100482.40
2019-01-24T02:43:18.052Z,100488.27
2019-01-24T02:45:44.141Z,100497.41
2019-01-24T02:48:10.293Z,100500.10
2019-01-24T02:50:36.394Z,100496.50
2019-01-24T02:53:02.620Z,100500.22
2019-01-24T02:55:30.651Z,100518.99
2019-01-24T02:57:56.781Z,100521.58
2019-01-24T03:00:23.116Z,100526.36
2019-01-24T03:02:49.287Z,100523.56
2019-01-24T03:05:17.801Z,100524.96
2019-01-24T03:07:43.951Z,100523.19
2019-01-24T03:10:12.610Z,100520.44
2019-01-24T03:12:38.796Z,100523.66
2019-01-24T03:15:08.256Z,100528.50
2019-01-24T03:17:34.502Z,100527.03
2019-01-24T03:20:00.654Z,100530.67
2019-01-24T03:22:26.856Z,100532.55
2019-01-24T03:24:52.961Z,100528.06
2019-01-24T03:27:19.201Z,100528.13
2019-01-24T03:29:45.358Z,100526.41
2019-01-24T03:32:11.622Z,100512.36
2019-01-24T03:34:37.732Z,100503.66
2019-01-24T03:37:03.963Z,100493.34
2019-01-24T03:39:30.083Z,100497.32
2019-01-24T03:41:56.222Z,100507.53
2019-01-24T03:44:22.325Z,100507.77
2019-01-24T03:46:48.477Z,100506.64
2019-01-24T03:49:14.599Z,100503.34
2019-01-24T03:51:40.757Z,100506.52
2019-01-24T03:54:06.925Z,100515.33
2019-01-24T03:56:33.039Z,100511.20
2019-01-24T03:58:59.121Z,100512.07
2019-01-24T04:01:25.278Z,100514.48
2019-01-24T04:03:51.476Z,100524.06
2019-01-24T04:06:17.582Z,100527.28
2019-01-24T04:08:43.702Z,100523.55
2019-01-24T04:11:09.796Z,100524.58
2019-01-24T04:13:36.040Z,100521.78
2019-01-24T04:16:02.183Z,100528.33
2019-01-24T04:18:28.307Z,100526.34
2019-01-24T04:20:54.482Z,100530.30
2019-01-24T04:23:21.075Z,100536.50
2019-01-24T04:25:47.212Z,100538.81
2019-01-24T04:28:13.357Z,100546.00
2019-01-24T04:30:39.520Z,100543.39
2019-01-24T04:33:05.692Z,100548.56
2019-01-24T04:35:31.806Z,100542.22
2019-01-24T04:37:57.949Z,100546.27
2019-01-24T04:40:24.203Z,100551.11
2019-01-24T04:42:50.338Z,100550.10
2019-01-24T04:45:16.956Z,100540.58
2019-01-24T04:47:43.086Z,100543.39
2019-01-24T04:50:11.639Z,100541.14
2019-01-24T04:52:37.745Z,100541.31
2019-01-24T04:55:06.285Z,100540.84
2019-01-24T04:57:32.512Z,100543.33
2019-01-24T04:59:58.766Z,100537.53
2019-01-24T05:02:24.972Z,100537.73
2019-01-24T05:04:51.142Z,100535.27
2019-01-24T05:07:17.323Z,100533.08
2019-01-24T05:09:43.471Z,100519.05
2019-01-24T05:12:09.742Z,100523.83
2019-01-24T05:14:35.839Z,100521.19
2019-01-24T05:17:02.088Z,100521.87
2019-01-24T05:19:28.184Z,100510.92
2019-01-24T05:21:54.326Z,100513.77
2019-01-24T05:24:20.615Z,100515.69
2019-01-24T05:26:46.753Z,100520.61
2019-01-24T05:29:13.017Z,100515.16
2019-01-24T05:31:39.137Z,100513.55
2019-01-24T05:34:05.272Z,100520.12
2019-01-24T05:36:31.427Z,100525.91
2019-01-24T05:38:57.615Z,100519.49
2019-01-24T05:41:23.754Z,100521.46
2019-01-24T05:43:49.888Z,100525.55
2019-01-24T05:46:16.138Z,100528.81
2019-01-24T05:48:44.672Z,100523.87
2019-01-24T05:51:10.899Z,100525.89
2019-01-24T05:53:37.047Z,100529.25
2019-01-24T05:56:03.169Z,100533.86
2019-01-24T05:58:29.418Z,100527.91
2019-01-24T06:00:55.638Z,100524.79
2019-01-24T06:03:21.823Z,100527.23
2019-01-24T06:05:47.970Z,100541.34
2019-01-24T06:08:14.107Z,100538.66
2019-01-24T06:10:40.346Z,100536.47
2019-01-24T06:13:06.594Z,100546.08
2019-01-24T06:15:33.166Z,100553.31
2019-01-24T06:17:59.313Z,100561.19
2019-01-24T06:20:25.489Z,100568.19
2019-01-24T06:22:51.633Z,100566.72
2019-01-24T06:25:17.808Z,100567.88
2019-01-24T06:27:43.916Z,100576.25
2019-01-24T06:30:19.043Z,100583.63
2019-01-24T06:32:45.186Z,100582.59
2019-01-24T06:35:11.494Z,100586.03
2019-01-24T06:37:37.960Z,100584.88
2019-01-24T06:40:07.161Z,100584.88
2019-01-24T06:42:33.331Z,100586.30
2019-01-24T06:44:59.467Z,100582.30
2019-01-24T06:47:25.637Z,100582.30
2019-01-24T06:49:51.777Z,100589.73
2019-01-24T06:52:17.917Z,100591.94
2019-01-24T06:54:44.048Z,100594.06
2019-01-24T06:57:10.219Z,100598.31
2019-01-24T06:59:36.450Z,100598.31
2019-01-24T07:02:02.983Z,100598.81
2019-01-24T07:04:29.226Z,100595.63
2019-01-24T07:06:55.435Z,100603.36
2019-01-24T07:09:21.583Z,100605.31
2019-01-24T07:11:47.753Z,100605.31
2019-01-24T07:14:13.916Z,100606.25
2019-01-24T07:16:40.052Z,100613.23
2019-01-24T07:19:06.172Z,100615.31
2019-01-24T07:21:32.333Z,100607.60
2019-01-24T07:23:58.489Z,100602.94
2019-01-24T07:26:24.598Z,100614.25
2019-01-24T07:28:50.718Z,100612.25
2019-01-24T07:31:16.906Z,100613.58
2019-01-24T07:33:43.103Z,100604.65
2019-01-24T07:36:09.446Z,100610.52
2019-01-24T07:38:35.579Z,100613.41
2019-01-24T07:41:01.736Z,100617.92
2019-01-24T07:43:27.860Z,100622.45
2019-01-24T07:45:54.013Z,100624.81
2019-01-24T07:48:20.197Z,100628.80
2019-01-24T07:50:46.423Z,100629.04
2019-01-24T07:53:12.708Z,100627.96
2019-01-24T07:55:38.853Z,100632.42
2019-01-24T07:58:05.075Z,100634.31
2019-01-24T08:00:31.235Z,100630.20
2019-01-24T08:02:57.679Z,100626.92
2019-01-24T08:05:25.959Z,100635.80
2019-01-24T08:07:52.075Z,100625.17
2019-01-24T08:10:19.913Z,100643.64
2019-01-24T08:12:46.168Z,100659.16
2019-01-24T08:15:14.574Z,100659.01
2019-01-24T08:17:41.409Z,100655.62
2019-01-24T08:20:10.845Z,100663.80
2019-01-24T08:22:36.938Z,100661.01
2019-01-24T08:25:05.999Z,100668.92
2019-01-24T08:27:32.201Z,100673.32
2019-01-24T08:29:58.303Z,100672.85
2019-01-24T08:32:24.780Z,100672.52
2019-01-24T08:34:50.966Z,100675.22
2019-01-24T08:37:17.074Z,100666.08
2019-01-24T08:39:45.012Z,100662.62
2019-01-24T08:42:11.145Z,100663.61
2019-01-24T08:44:37.252Z,100658.81
2019-01-24T08:47:03.813Z,100661.61
2019-01-24T08:49:29.931Z,100667.56
2019-01-24T08:51:56.070Z,100663.09
2019-01-24T08:54:22.179Z,100672.42
2019-01-24T08:56:48.318Z,100672.78
2019-01-24T08:59:14.451Z,100679.12
2019-01-24T09:01:40.678Z,100674.20
2019-01-24T09:04:06.789Z,100677.84
2019-01-24T09:06:32.917Z,100670.81
2019-01-24T09:08:59.066Z,100674.42
2019-01-24T09:11:25.172Z,100677.52
2019-01-24T09:13:51.296Z,100679.05
2019-01-24T09:16:17.444Z,100679.35
2019-01-24T09:18:43.681Z,100682.61
2019-01-24T09:21:09.974Z,100684.52
2019-01-24T09:23:36.184Z,100676.62
2019-01-24T09:26:02.437Z,100682.73
2019-01-24T09:28:28.573Z,100691.36
2019-01-24T09:30:54.722Z,100685.61
2019-01-24T09:33:20.830Z,100695.75
2019-01-24T09:35:47.104Z,100713.33
2019-01-24T09:38:13.298Z,100701.11
2019-01-24T09:40:39.444Z,100690.42
2019-01-24T09:43:05.560Z,100683.44
2019-01-24T09:45:31.697Z,100695.44
2019-01-24T09:47:58.489Z,100707.78
2019-01-24T09:50:25.503Z,100699.81
2019-01-24T09:52:51.763Z,100698.23
2019-01-24T09:55:17.911Z,100702.33
2019-01-24T09:57:44.306Z,100709.76
2019-01-24T10:00:16.284Z,100717.12
2019-01-24T10:02:42.469Z,100726.37
2019-01-24T10:05:08.808Z,100724.43
2019-01-24T10:07:34.960Z,100729.87
2019-01-24T10:10:01.124Z,100738.50
2019-01-24T10:12:27.268Z,100751.75
2019-01-24T10:14:53.391Z,100748.55
2019-01-24T10:17:19.553Z,100735.98
2019-01-24T10:19:45.658Z,100747.84
2019-01-24T10:22:11.859Z,100745.07
2019-01-24T10:24:38.076Z,100745.07
2019-01-24T10:27:04.240Z,100745.23
2019-01-24T10:29:30.507Z,100743.79
2019-01-24T10:31:56.703Z,100747.44
2019-01-24T10:34:22.950Z,100742.42
2019-01-24T10:36:49.175Z,100748.27
2019-01-24T10:39:15.327Z,100749.25
2019-01-24T10:41:41.418Z,100753.57
2019-01-24T10:44:07.525Z,100751.53
2019-01-24T10:46:33.650Z,100756.75
2019-01-24T10:48:59.806Z,100754.16
2019-01-24T10:51:25.952Z,100738.95
2019-01-24T10:53:52.101Z,100741.11
2019-01-24T10:56:18.241Z,100739.98
2019-01-24T10:58:44.364Z,100739.94
2019-01-24T11:01:10.513Z,100743.83
2019-01-24T11:03:36.635Z,100735.19
2019-01-24T11:06:02.966Z,100741.27
2019-01-24T11:08:29.069Z,100743.05
2019-01-24T11:10:55.221Z,100744.30
2019-01-24T11:13:21.449Z,100744.30
2019-01-24T11:15:47.562Z,100739.66
2019-01-24T11:18:13.565Z,100746.06
2019-01-24T11:20:39.978Z,100752.44
2019-01-24T11:23:06.205Z,100746.63
2019-01-24T11:25:32.399Z,100756.98
2019-01-24T11:27:58.626Z,100751.42
2019-01-24T11:30:27.484Z,100748.72
2019-01-24T11:32:53.878Z,100749.92
2019-01-24T11:35:22.545Z,100753.37
2019-01-24T11:37:48.698Z,100749.69
2019-01-24T11:40:16.633Z,100742.89
2019-01-24T11:42:42.882Z,100749.06
2019-01-24T11:45:11.145Z,100752.72
2019-01-24T11:47:37.254Z,100759.75
2019-01-24T11:50:07.111Z,100758.48
2019-01-24T11:52:33.215Z,100755.20
2019-01-24T11:54:59.338Z,100750.98
2019-01-24T11:57:25.447Z,100749.32
2019-01-24T11:59:51.602Z,100747.48
2019-01-24T12:02:17.826Z,100752.34
2019-01-24T12:04:44.230Z,100753.18
2019-01-24T12:07:10.364Z,100755.67
2019-01-24T12:09:36.346Z,100755.31
2019-01-24T12:12:02.715Z,100751.36
2019-01-24T12:14:28.824Z,100747.77
2019-01-24T12:16:55.026Z,100748.02
2019-01-24T12:19:21.160Z,100741.28
2019-01-24T12:21:47.373Z,100733.25
2019-01-24T12:24:13.399Z,100735.11
2019-01-24T12:26:39.557Z,100737.27
2019-01-24T12:29:05.694Z,100737.20
2019-01-24T12:31:31.829Z,100745.47
2019-01-24T12:33:57.941Z,100738.91
2019-01-24T12:36:24.071Z,100736.80
2019-01-24T12:38:50.207Z,100733.71
2019-01-24T12:41:16.362Z,100736.25
2019-01-24T12:43:42.726Z,100734.88
2019-01-24T12:46:08.867Z,100727.03
2019-01-24T12:48:34.941Z,100714.13
2019-01-24T12:51:01.074Z,100713.73
2019-01-24T12:53:27.172Z,100719.42
2019-01-24T12:55:53.296Z,100723.75
2019-01-24T12:58:19.330Z,100711.96
2019-01-24T13:00:45.455Z,100717.59
2019-01-24T13:03:11.588Z,100729.19
2019-01-24T13:05:37.692Z,100713.70
2019-01-24T13:08:03.938Z,100703.20
2019-01-24T13:10:30.007Z,100709.39
2019-01-24T13:12:56.392Z,100701.97
2019-01-24T13:15:25.483Z,100702.90
2019-01-24T13:17:51.726Z,100707.29
2019-01-24T13:20:17.830Z,100703.42
2019-01-24T13:22:43.953Z,100705.62
2019-01-24T13:25:13.220Z,100700.91
2019-01-24T13:27:39.486Z,100693.46
2019-01-24T13:30:24.109Z,100690.38
2019-01-24T13:32:50.221Z,100687.77
2019-01-24T13:35:16.374Z,100691.27
2019-01-24T13:37:42.673Z,100682.91
2019-01-24T13:40:12.101Z,100686.84
2019-01-24T13:42:38.234Z,100691.33
2019-01-24T13:45:07.955Z,100688.27
2019-01-24T13:47:34.125Z,100695.28
2019-01-24T13:50:00.317Z,100697.76
2019-01-24T13:52:26.495Z,100696.15
2019-01-24T13:54:52.593Z,100692.25
2019-01-24T13:57:18.719Z,100690.64
2019-01-24T13:59:44.879Z,100695.31
2019-01-24T14:02:11.114Z,100698.78
2019-01-24T14:04:37.338Z,100704.47
2019-01-24T14:07:03.611Z,100717.47
2019-01-24T14:09:29.815Z,100709.61
2019-01-24T14:11:55.978Z,100711.74
2019-01-24T14:14:22.071Z,100709.14
2019-01-24T14:16:48.221Z,100702.59
2019-01-24T14:19:14.365Z,100699.77
2019-01-24T14:21:40.475Z,100698.01
2019-01-24T14:24:06.631Z,100704.51
2019-01-24T14:26:32.708Z,100710.57
2019-01-24T14:28:58.835Z,100711.94
2019-01-24T14:31:24.964Z,100715.77
2019-01-24T14:33:51.126Z,100717.41
2019-01-24T14:36:17.558Z,100732.37
2019-01-24T14:38:43.766Z,100733.94
2019-01-24T14:41:09.858Z,100739.07
2019-01-24T14:43:35.995Z,100733.78
2019-01-24T14:46:02.100Z,100741.13
2019-01-24T14:48:28.190Z,100736.31
2019-01-24T14:50:54.315Z,100746.59
2019-01-24T14:53:20.380Z,100734.01
2019-01-24T14:55:46.528Z,100737.91
2019-01-24T14:58:12.680Z,100741.63
2019-01-24T15:00:42.443Z,100742.43
2019-01-24T15:03:08.528Z,100736.77
2019-01-24T15:05:34.708Z,100737.60
2019-01-24T15:08:00.817Z,100745.32
2019-01-24T15:10:27.526Z,100745.25
2019-01-24T15:12:53.710Z,100743.52
2019-01-24T15:15:21.205Z,100743.09
2019-01-24T15:17:47.308Z,100738.30
2019-01-24T15:20:15.510Z,100746.91
2019-01-24T15:22:41.635Z,100740.42
2019-01-24T15:25:10.466Z,100741.69
2019-01-24T15:27:36.601Z,100747.81
2019-01-24T15:30:06.114Z,100743.95
2019-01-24T15:32:32.235Z,100737.43
2019-01-24T15:34:58.245Z,100737.47
2019-01-24T15:37:24.410Z,100744.28
2019-01-24T15:39:50.471Z,100738.16
2019-01-24T15:42:16.646Z,100732.50
2019-01-24T15:44:42.772Z,100747.67
2019-01-24T15:47:08.952Z,100748.07
2019-01-24T15:49:35.080Z,100743.75
2019-01-24T15:52:01.466Z,100744.17
2019-01-24T15:54:27.592Z,100747.17
2019-01-24T15:56:53.673Z,100748.91
2019-01-24T15:59:19.848Z,100751.86
2019-01-24T16:01:45.962Z,100757.88
2019-01-24T16:04:12.125Z,100754.78
2019-01-24T16:06:38.240Z,100755.18
2019-01-24T16:09:06.211Z,100757.66
2019-01-24T16:11:32.332Z,100756.33
2019-01-24T16:13:58.549Z,100753.23
2019-01-24T16:16:24.637Z,100743.57
2019-01-24T16:18:50.877Z,100753.80
2019-01-24T16:21:16.982Z,100752.83
2019-01-24T16:23:43.065Z,100757.08
2019-01-24T16:26:09.200Z,100760.89
2019-01-24T16:28:35.283Z,100766.88
2019-01-24T16:31:01.400Z,100768.53
2019-01-24T16:33:27.528Z,100772.85
2019-01-24T16:35:53.818Z,100772.89
2019-01-24T16:38:19.961Z,100762.16
2019-01-24T16:40:46.088Z,100762.55
2019-01-24T16:43:12.209Z,100774.66
2019-01-24T16:45:39.317Z,100781.14
2019-01-24T16:48:05.443Z,100775.95
2019-01-24T16:50:31.529Z,100784.09
2019-01-24T16:52:57.632Z,100787.08
2019-01-24T16:55:23.795Z,100793.25
2019-01-24T16:57:50.736Z,100788.45
2019-01-24T17:00:25.723Z,100798.36
2019-01-24T17:02:52.025Z,100792.73
2019-01-24T17:05:18.087Z,100799.58
2019-01-24T17:07:44.351Z,100793.02
2019-01-24T17:10:14.115Z,100802.14
2019-01-24T17:12:40.250Z,100796.55
2019-01-24T17:15:08.979Z,100800.84
2019-01-24T17:17:35.113Z,100796.04
2019-01-24T17:20:01.220Z,100806.37
2019-01-24T17:22:27.343Z,100805.88
2019-01-24T17:24:53.923Z,100813.14
2019-01-24T17:27:20.213Z,100812.20
2019-01-24T17:29:46.302Z,100819.58
2019-01-24T17:32:12.435Z,100819.90
2019-01-24T17:34:38.701Z,100823.28
2019-01-24T17:37:04.905Z,100829.28
2019-01-24T17:39:31.040Z,100827.95
2019-01-24T17:41:57.286Z,100834.78
2019-01-24T17:44:23.430Z,100829.64
2019-01-24T17:46:49.634Z,100834.43
2019-01-24T17:49:15.747Z,100830.11
2019-01-24T17:51:42.017Z,100831.02
2019-01-24T17:54:08.186Z,100834.04
2019-01-24T17:56:34.331Z,100840.48
2019-01-24T17:59:00.763Z,100837.89
2019-01-24T18:01:26.868Z,100840.01
2019-01-24T18:03:53.009Z,100851.20
2019-01-24T18:06:19.215Z,100849.00
2019-01-24T18:08:45.369Z,100847.70
2019-01-24T18:11:11.531Z,100849.43
2019-01-24T18:13:37.768Z,100851.13
2019-01-24T18:16:04.247Z,100857.21
2019-01-24T18:18:30.408Z,100865.38
2019-01-24T18:20:56.501Z,100865.38
2019-01-24T18:23:22.920Z,100872.34
2019-01-24T18:25:49.044Z,100876.19
2019-01-24T18:28:15.173Z,100880.08
2019-01-24T18:30:41.610Z,100878.73
2019-01-24T18:33:07.759Z,100886.98
2019-01-24T18:35:33.966Z,100880.03
2019-01-24T18:38:00.117Z,100880.03
2019-01-24T18:40:30.000Z,100881.64
2019-01-24T18:42:56.448Z,100884.92
2019-01-24T18:45:38.041Z,100886.56
2019-01-24T18:48:05.193Z,100879.52
2019-01-24T18:50:31.361Z,100879.78
2019-01-24T18:52:57.480Z,100884.84
2019-01-24T18:55:23.584Z,100877.33
2019-01-24T18:57:49.706Z,100874.59
2019-01-24T19:00:26.108Z,100871.02
2019-01-24T19:02:52.243Z,100871.70
2019-01-24T19:05:18.455Z,100870.66
2019-01-24T19:07:44.558Z,100872.63
2019-01-24T19:10:12.596Z,100869.30
2019-01-24T19:12:38.753Z,100879.00
2019-01-24T19:15:16.891Z,100880.98
2019-01-24T19:17:43.830Z,100882.42
2019-01-24T19:20:11.421Z,100889.95
2019-01-24T19:22:37.588Z,100885.84
2019-01-24T19:25:10.268Z,100889.62
2019-01-24T19:27:36.409Z,100896.00
2019-01-24T19:30:06.133Z,100889.00
2019-01-24T19:32:32.275Z,100887.98
2019-01-24T19:34:58.566Z,100887.31
2019-01-24T19:37:24.821Z,100895.84
2019-01-24T19:39:50.953Z,100890.67
2019-01-24T19:42:17.062Z,100899.67
2019-01-24T19:44:43.211Z,100898.38
2019-01-24T19:47:09.369Z,100901.36
2019-01-24T19:49:35.499Z,100904.91
2019-01-24T19:52:01.670Z,100908.45
2019-01-24T19:54:27.802Z,100910.28
2019-01-24T19:56:54.569Z,100909.51
2019-01-24T19:59:20.785Z,100913.92
2019-01-24T20:01:47.026Z,100917.42
2019-01-24T20:04:13.131Z,100913.97
2019-01-24T20:06:39.268Z,100918.72
2019-01-24T20:09:06.534Z,100914.02
2019-01-24T20:11:32.709Z,100901.89
2019-01-24T20:13:58.835Z,100907.97
2019-01-24T20:16:27.427Z,100915.22
2019-01-24T20:18:53.565Z,100919.44
2019-01-24T20:21:19.720Z,100919.71
2019-01-24T20:23:45.910Z,100922.16
2019-01-24T20:26:15.184Z,100920.24
2019-01-24T20:28:41.355Z,100917.16
2019-01-24T20:31:07.592Z,100919.56
2019-01-24T20:33:33.958Z,100922.91
2019-01-24T20:36:00.135Z,100928.35
2019-01-24T20:38:26.492Z,100935.96
2019-01-24T20:40:53.160Z,100939.70
2019-01-24T20:43:19.437Z,100942.34
2019-01-24T20:45:45.599Z,100937.53
2019-01-24T20:48:11.839Z,100943.14
2019-01-24T20:50:38.205Z,100937.11
2019-01-24T20:53:04.357Z,100946.64
2019-01-24T20:55:30.751Z,100955.16
2019-01-24T20:57:56.995Z,100950.47
2019-01-24T21:00:24.037Z,100953.16
2019-01-24T21:02:50.712Z,100955.70
2019-01-24T21:05:18.968Z,100961.19
2019-01-24T21:07:45.414Z,100958.45
2019-01-24T21:10:14.828Z,100962.23
2019-01-24T21:12:40.960Z,100958.58
2019-01-24T21:15:10.364Z,100954.59
2019-01-24T21:17:36.534Z,100959.17
2019-01-24T21:20:06.296Z,100959.06
2019-01-24T21:22:32.464Z,100951.57
2019-01-24T21:24:58.616Z,100958.20
2019-01-24T21:27:24.877Z,100960.20
2019-01-24T21:29:51.066Z,100959.19
2019-01-24T21:32:17.244Z,100961.77
2019-01-24T21:34:43.437Z,100956.55
2019-01-24T21:37:10.558Z,100961.59
2019-01-24T21:39:37.099Z,100965.70
2019-01-24T21:42:03.687Z,100969.88
2019-01-24T21:44:29.832Z,100956.85
2019-01-24T21:46:56.001Z,100963.22
2019-01-24T21:49:22.185Z,100967.41
2019-01-24T21:51:48.678Z,100970.09
2019-01-24T21:54:14.812Z,100977.19
2019-01-24T21:56:40.994Z,100977.06
2019-01-24T21:59:07.156Z,100982.56
2019-01-24T22:01:33.328Z,100977.88
2019-01-24T22:03:59.461Z,100976.47
2019-01-24T22:06:25.834Z,100975.54
2019-01-24T22:08:52.030Z,100975.39
2019-01-24T22:11:18.179Z,100972.20
2019-01-24T22:13:44.330Z,100974.19
2019-01-24T22:16:10.589Z,100972.84
2019-01-24T22:18:37.016Z,100969.33
2019-01-24T22:21:03.814Z,100984.70
2019-01-24T22:23:29.969Z,100985.99
2019-01-24T22:25:56.096Z,100986.05
2019-01-24T22:28:22.275Z,100986.80
2019-01-24T22:30:49.345Z,100991.37
2019-01-24T22:33:15.484Z,100993.02
2019-01-24T22:35:41.655Z,100987.85
2019-01-24T22:38:09.327Z,100990.77
2019-01-24T22:40:35.468Z,100985.90
2019-01-24T22:43:01.652Z,100976.64
2019-01-24T22:45:27.941Z,100984.06
2019-01-24T22:47:54.062Z,100976.31
2019-01-24T22:50:20.327Z,100979.70
2019-01-24T22:52:46.487Z,100985.80
2019-01-24T22:55:13.051Z,100989.28
2019-01-24T22:57:39.206Z,100987.64
2019-01-24T23:00:50.064Z,100984.67
2019-01-24T23:03:19.631Z,100987.25
2019-01-24T23:05:45.892Z,100981.55
2019-01-24T23:08:12.244Z,100985.36
2019-01-24T23:10:38.488Z,100988.75
2019-01-24T23:13:05.073Z,100989.47
2019-01-24T23:15:31.375Z,100979.95
2019-01-24T23:17:57.543Z,100980.44
2019-01-24T23:20:23.659Z,100980.86
2019-01-24T23:22:49.790Z,100984.25
2019-01-24T23:25:16.011Z,100978.21
2019-01-24T23:27:42.224Z,100968.27
2019-01-24T23:30:10.928Z,100969.63
2019-01-24T23:32:37.060Z,100967.05
2019-01-24T23:35:05.644Z,100964.88
2019-01-24T23:37:31.911Z,100964.88
2019-01-24T23:39:58.095Z,100965.75
2019-01-24T23:42:24.349Z,100964.88
2019-01-24T23:44:50.586Z,100965.00
2019-01-24T23:47:16.714Z,100963.77
2019-01-24T23:49:42.879Z,100966.03
2019-01-24T23:52:10.836Z,100964.38
2019-01-24T23:54:37.277Z,100961.25
2019-01-24T23:57:03.470Z,100971.94
2019-01-24T23:59:29.626Z,100975.15
